Borult
Részlegesen felhős égbolt fátyolfelhőkkel
Részlegesen felhős égbolt fátyolfelhőkkel
Borult
Borult
Nagyrészt felhős égbolt fátyolfelhőkkel
Nagyrészt felhős égbolt néhány fátyolfelhővel
(°C)
(°C)
DNy
DNy
DNy
DNy
DNy
DNy
DNy
(km/h)
12-50
12-52
12-52
12-51
11-47
10-40
9-35
(mm)
0
0
0
0
0
0
0
(%)
36
54
54
54
36
27
17

Napfelkelte

/ 17.9°
sun-icon
UV 0
07:40
17:54
Hold (fogyó félhold) (223°)
23:17
08:12

METAR Spjelkavik (ENAL)-ért

Idő Feltételek Hőmérséklet/
Harmatpont
Szél Látási viszonyok Időjárás Felhők Légnyomás Módosítás Nyers
VFR 6°C / 2°C 230º 22kt 9700m - Few Clouds 3600ft
Scattered Clouds 5500ft
1000 - ENAL 280950Z 23022KT 9999 FEW036 SCT055 06/02 Q1000
VFR 6°C / 1°C 220º 20kt 9700m - Few Clouds 3900ft
Broken Clouds 6100ft
1000 - ENAL 280920Z 22020KT 9999 FEW039 BKN061 06/01 Q1000
VFR 6°C / 1°C 220º 19kt 9700m - Few Clouds 3800ft
Scattered Clouds 5000ft
999 - ENAL 280850Z 22019KT 9999 FEW038 SCT050 06/01 Q0999
VFR 6°C / 1°C 220º 19kt 9700m - Few Clouds 3300ft
Broken Clouds 4500ft
999 - ENAL 280820Z 22019KT 9999 FEW033 BKN045 06/01 Q0999
VFR 5°C / 1°C 220º 19kt 9700m - Scattered Clouds 3500ft 999 - ENAL 280750Z 22019KT 9999 SCT035 05/01 Q0999
VFR 5°C / 1°C 220º 19kt 9700m - Scattered Clouds 3400ft 998 - ENAL 280720Z 22019KT 9999 SCT034 05/01 Q0998
VFR 5°C / 1°C 210º 17kt 9700m - Scattered Clouds 3200ft 998 - ENAL 280650Z 21017KT 9999 SCT032 05/01 Q0998
VFR 5°C / 1°C 220º 21kt 9700m - Scattered Clouds 4000ft 998 - ENAL 280620Z 22021KT 9999 SCT040 05/01 Q0998
VFR 5°C / 1°C 220º 19kt 9700m in the Vicinity Showers Few Clouds 1700ft
Scattered Clouds 5000ft
998 - ENAL 280550Z 22019KT 9999 VCSH FEW017 SCT050 05/01 Q0998
VFR 4°C / 2°C 220º 21kt Gust 31kt 9700m Light Showers Rain 3.00mm precipitation Scattered Clouds 1700ft
Broken Clouds 4800ft
998 - ENAL 280520Z 22021G31KT 9999 -SHRA SCT017 BKN048 04/02 Q0998
VFR 4°C / 2°C 220º 21kt 9700m Light Showers Rain 3.00mm precipitation Scattered Clouds 1600ft
Broken Clouds 3900ft
998 - ENAL 280450Z 22021KT 9999 -SHRA SCT016 BKN039 04/02 Q0998
MVFR 4°C / 2°C 250º 19kt 9700m Light Rain 1.00mm precipitation Few Clouds 600ft
Scattered Clouds 1100ft
Broken Clouds 1700ft
998 - ENAL 280420Z AUTO 25019KT 9999 -RA FEW006/// SCT011/// BKN017/// 04/02 Q0998
VFR 4°C / 2°C 190º 11kt 9700m Light Drizzle 0.20mm precipitation Few Clouds 900ft
Scattered Clouds 2100ft
Broken Clouds 3600ft
997 - ENAL 280350Z AUTO 19011KT 9999 -DZ FEW009/// SCT021/// BKN036/// 04/02 Q0997 REDZ
MVFR 4°C / 2°C 210º 13kt 9700m Light Rain 1.00mm precipitation Broken Clouds 1400ft
Overcast 3800ft
998 - ENAL 280320Z AUTO 21013KT 9999 -RA BKN014/// OVC038/// 04/02 Q0998 REDZ
MVFR 5°C / 2°C 200º 15kt Gust 25kt 9700m Heavy Drizzle Heavy Rain 0.40mm precipitation Scattered Clouds 500ft
Scattered Clouds 1700ft
Broken Clouds 2400ft
997 - ENAL 280250Z AUTO 20015G25KT 9999 +DZRA SCT005/// SCT017/// BKN024/// 05/02 Q0997
MVFR 5°C / 2°C 190º 16kt 9700m Light Rain 1.00mm precipitation Few Clouds 500ft
Scattered Clouds 1700ft
Broken Clouds 2700ft
997 - ENAL 280220Z AUTO 19016KT 9999 -RA FEW005/// SCT017/// BKN027/// 05/02 Q0997 REDZ
MVFR 5°C / 2°C 200º 14kt Gust 26kt 9700m Light Rain 1.00mm precipitation Few Clouds 600ft
Scattered Clouds 1700ft
Broken Clouds 2800ft
997 - ENAL 280150Z AUTO 20014G26KT 9999 -RA FEW006/// SCT017/// BKN028/// 05/02 Q0997 REDZ
VFR 5°C / 2°C 200º 14kt 9700m Light Drizzle Light Rain 0.20mm precipitation Few Clouds 1800ft
Broken Clouds 3100ft
Overcast 3900ft
997 - ENAL 280120Z AUTO 20014KT 9999 -DZRA FEW018/// BKN031/// OVC039/// 05/02 Q0997 REDZ
VFR 5°C / 2°C 200º 15kt 9700m Light Rain 1.00mm precipitation 998 - ENAL 280050Z AUTO 20015KT 9999 -RA ///031/// 05/02 Q0998 REDZ
VFR 6°C / 1°C 210º 19kt 9700m Light Rain 1.00mm precipitation Few Clouds 1700ft
Scattered Clouds 3000ft
Broken Clouds 3700ft
997 - ENAL 280020Z AUTO 21019KT 9999 -RA FEW017/// SCT030/// BKN037/// 06/01 Q0997 REDZ
VFR 6°C / 1°C 200º 13kt 9700m Light Rain 1.00mm precipitation Few Clouds 2000ft
Scattered Clouds 3100ft
Broken Clouds 4100ft
997 - ENAL 272350Z AUTO 20013KT 9999 -RA FEW020/// SCT031/// BKN041/// 06/01 Q0997
VFR 6°C / 1°C 200º 12kt 9700m - Few Clouds 3300ft
Broken Clouds 4700ft
997 - ENAL 272320Z AUTO 20012KT 9999 FEW033/// BKN047/// 06/01 Q0997
VFR 6°C / 1°C 190º 20kt Gust 31kt 9700m - Few Clouds 4000ft
Scattered Clouds 5200ft
Broken Clouds 6600ft
998 - ENAL 272250Z AUTO 19020G31KT 9999 FEW040/// SCT052/// BKN066/// 06/01 Q0998
VFR 6°C / 0°C 200º 11kt 9700m - Scattered Clouds 4400ft 998 - ENAL 272220Z AUTO 20011KT 9999 SCT044/// 06/00 Q0998

VFR

6°C / 2°C

[Több]
Szél 230º 22kt
Látási viszonyok 9700m
Időjárás -
Felhők Few Clouds 3600ft
Scattered Clouds 5500ft
Légnyomás 1000
Módosítás -
Nyers ENAL 280950Z 23022KT 9999 FEW036 SCT055 06/02 Q1000

VFR

6°C / 1°C

[Több]
Szél 220º 20kt
Látási viszonyok 9700m
Időjárás -
Felhők Few Clouds 3900ft
Broken Clouds 6100ft
Légnyomás 1000
Módosítás -
Nyers ENAL 280920Z 22020KT 9999 FEW039 BKN061 06/01 Q1000

VFR

6°C / 1°C

[Több]
Szél 220º 19kt
Látási viszonyok 9700m
Időjárás -
Felhők Few Clouds 3800ft
Scattered Clouds 5000ft
Légnyomás 999
Módosítás -
Nyers ENAL 280850Z 22019KT 9999 FEW038 SCT050 06/01 Q0999

VFR

6°C / 1°C

[Több]
Szél 220º 19kt
Látási viszonyok 9700m
Időjárás -
Felhők Few Clouds 3300ft
Broken Clouds 4500ft
Légnyomás 999
Módosítás -
Nyers ENAL 280820Z 22019KT 9999 FEW033 BKN045 06/01 Q0999

VFR

5°C / 1°C

[Több]
Szél 220º 19kt
Látási viszonyok 9700m
Időjárás -
Felhők Scattered Clouds 3500ft
Légnyomás 999
Módosítás -
Nyers ENAL 280750Z 22019KT 9999 SCT035 05/01 Q0999

VFR

5°C / 1°C

[Több]
Szél 220º 19kt
Látási viszonyok 9700m
Időjárás -
Felhők Scattered Clouds 3400ft
Légnyomás 998
Módosítás -
Nyers ENAL 280720Z 22019KT 9999 SCT034 05/01 Q0998

VFR

5°C / 1°C

[Több]
Szél 210º 17kt
Látási viszonyok 9700m
Időjárás -
Felhők Scattered Clouds 3200ft
Légnyomás 998
Módosítás -
Nyers ENAL 280650Z 21017KT 9999 SCT032 05/01 Q0998

VFR

5°C / 1°C

[Több]
Szél 220º 21kt
Látási viszonyok 9700m
Időjárás -
Felhők Scattered Clouds 4000ft
Légnyomás 998
Módosítás -
Nyers ENAL 280620Z 22021KT 9999 SCT040 05/01 Q0998

VFR

5°C / 1°C

[Több]
Szél 220º 19kt
Látási viszonyok 9700m
Időjárás in the Vicinity Showers
Felhők Few Clouds 1700ft
Scattered Clouds 5000ft
Légnyomás 998
Módosítás -
Nyers ENAL 280550Z 22019KT 9999 VCSH FEW017 SCT050 05/01 Q0998

VFR

4°C / 2°C

[Több]
Szél 220º 21kt Gust 31kt
Látási viszonyok 9700m
Időjárás Light Showers Rain 3.00mm precipitation
Felhők Scattered Clouds 1700ft
Broken Clouds 4800ft
Légnyomás 998
Módosítás -
Nyers ENAL 280520Z 22021G31KT 9999 -SHRA SCT017 BKN048 04/02 Q0998

VFR

4°C / 2°C

[Több]
Szél 220º 21kt
Látási viszonyok 9700m
Időjárás Light Showers Rain 3.00mm precipitation
Felhők Scattered Clouds 1600ft
Broken Clouds 3900ft
Légnyomás 998
Módosítás -
Nyers ENAL 280450Z 22021KT 9999 -SHRA SCT016 BKN039 04/02 Q0998

MVFR

4°C / 2°C

[Több]
Szél 250º 19kt
Látási viszonyok 9700m
Időjárás Light Rain 1.00mm precipitation
Felhők Few Clouds 600ft
Scattered Clouds 1100ft
Broken Clouds 1700ft
Légnyomás 998
Módosítás -
Nyers ENAL 280420Z AUTO 25019KT 9999 -RA FEW006/// SCT011/// BKN017/// 04/02 Q0998

VFR

4°C / 2°C

[Több]
Szél 190º 11kt
Látási viszonyok 9700m
Időjárás Light Drizzle 0.20mm precipitation
Felhők Few Clouds 900ft
Scattered Clouds 2100ft
Broken Clouds 3600ft
Légnyomás 997
Módosítás -
Nyers ENAL 280350Z AUTO 19011KT 9999 -DZ FEW009/// SCT021/// BKN036/// 04/02 Q0997 REDZ

MVFR

4°C / 2°C

[Több]
Szél 210º 13kt
Látási viszonyok 9700m
Időjárás Light Rain 1.00mm precipitation
Felhők Broken Clouds 1400ft
Overcast 3800ft
Légnyomás 998
Módosítás -
Nyers ENAL 280320Z AUTO 21013KT 9999 -RA BKN014/// OVC038/// 04/02 Q0998 REDZ

MVFR

5°C / 2°C

[Több]
Szél 200º 15kt Gust 25kt
Látási viszonyok 9700m
Időjárás Heavy Drizzle Heavy Rain 0.40mm precipitation
Felhők Scattered Clouds 500ft
Scattered Clouds 1700ft
Broken Clouds 2400ft
Légnyomás 997
Módosítás -
Nyers ENAL 280250Z AUTO 20015G25KT 9999 +DZRA SCT005/// SCT017/// BKN024/// 05/02 Q0997

MVFR

5°C / 2°C

[Több]
Szél 190º 16kt
Látási viszonyok 9700m
Időjárás Light Rain 1.00mm precipitation
Felhők Few Clouds 500ft
Scattered Clouds 1700ft
Broken Clouds 2700ft
Légnyomás 997
Módosítás -
Nyers ENAL 280220Z AUTO 19016KT 9999 -RA FEW005/// SCT017/// BKN027/// 05/02 Q0997 REDZ

MVFR

5°C / 2°C

[Több]
Szél 200º 14kt Gust 26kt
Látási viszonyok 9700m
Időjárás Light Rain 1.00mm precipitation
Felhők Few Clouds 600ft
Scattered Clouds 1700ft
Broken Clouds 2800ft
Légnyomás 997
Módosítás -
Nyers ENAL 280150Z AUTO 20014G26KT 9999 -RA FEW006/// SCT017/// BKN028/// 05/02 Q0997 REDZ

VFR

5°C / 2°C

[Több]
Szél 200º 14kt
Látási viszonyok 9700m
Időjárás Light Drizzle Light Rain 0.20mm precipitation
Felhők Few Clouds 1800ft
Broken Clouds 3100ft
Overcast 3900ft
Légnyomás 997
Módosítás -
Nyers ENAL 280120Z AUTO 20014KT 9999 -DZRA FEW018/// BKN031/// OVC039/// 05/02 Q0997 REDZ

VFR

5°C / 2°C

[Több]
Szél 200º 15kt
Látási viszonyok 9700m
Időjárás Light Rain 1.00mm precipitation
Felhők
Légnyomás 998
Módosítás -
Nyers ENAL 280050Z AUTO 20015KT 9999 -RA ///031/// 05/02 Q0998 REDZ

VFR

6°C / 1°C

[Több]
Szél 210º 19kt
Látási viszonyok 9700m
Időjárás Light Rain 1.00mm precipitation
Felhők Few Clouds 1700ft
Scattered Clouds 3000ft
Broken Clouds 3700ft
Légnyomás 997
Módosítás -
Nyers ENAL 280020Z AUTO 21019KT 9999 -RA FEW017/// SCT030/// BKN037/// 06/01 Q0997 REDZ

VFR

6°C / 1°C

[Több]
Szél 200º 13kt
Látási viszonyok 9700m
Időjárás Light Rain 1.00mm precipitation
Felhők Few Clouds 2000ft
Scattered Clouds 3100ft
Broken Clouds 4100ft
Légnyomás 997
Módosítás -
Nyers ENAL 272350Z AUTO 20013KT 9999 -RA FEW020/// SCT031/// BKN041/// 06/01 Q0997

VFR

6°C / 1°C

[Több]
Szél 200º 12kt
Látási viszonyok 9700m
Időjárás -
Felhők Few Clouds 3300ft
Broken Clouds 4700ft
Légnyomás 997
Módosítás -
Nyers ENAL 272320Z AUTO 20012KT 9999 FEW033/// BKN047/// 06/01 Q0997

VFR

6°C / 1°C

[Több]
Szél 190º 20kt Gust 31kt
Látási viszonyok 9700m
Időjárás -
Felhők Few Clouds 4000ft
Scattered Clouds 5200ft
Broken Clouds 6600ft
Légnyomás 998
Módosítás -
Nyers ENAL 272250Z AUTO 19020G31KT 9999 FEW040/// SCT052/// BKN066/// 06/01 Q0998

VFR

6°C / 0°C

[Több]
Szél 200º 11kt
Látási viszonyok 9700m
Időjárás -
Felhők Scattered Clouds 4400ft
Légnyomás 998
Módosítás -
Nyers ENAL 272220Z AUTO 20011KT 9999 SCT044/// 06/00 Q0998

TAF Spjelkavik (ENAL)-ért

From till


From till Wind 200º 18kt. Visibility 9700m. Scattered Clouds 3500ft.
Temporarly from till Wind 200º 20kt. Gust 35kt. Visibility 4000m. Showers Rain . Broken Clouds 1400ft.

Nyers: TAF ENAL 280800Z 2809/2818 20018KT 9999 SCT035 TEMPO 2809/2818 20020G35KT 4000 SHRA BKN014CB

rainNOW: Eső előrejelzés Spjelkavik és környéke (25km-es körzetben)

0.0 mm
0.0 mm
0.0 mm
0.0 mm
0.0 mm
0.0 mm
0.0 mm
0.0 mm
0.0 mm
0.0 mm
0.0 mm
0.0 mm

Radarkép ehhez: Spjelkavik

Szitáló eső
Enyhe
Mérsékelt
Erős
Nagyon heves
Jégeső

A helyzetjelző helye: Spjelkavik. A narancssárga keresztek villámlást jeleznek. Az adatokat nowcast.de szolgáltatta (elérhető az USA-ban, Európában és Ausztráliában). A szitáló eső vagy enyhe hóesés láthatatlan lehet a radar számára. A csapadék intenzitása színkóddal van jelölve, a türkizkéktől a pirosig.

Aktuális műholdas és esőképek ezen a helyen: Spjelkavik, Norvégia

A helyszín jelölő a következő helyen van elhelyezve: Spjelkavik. [Több]

A valós idejű műholdas kép ötvözi a nappali látható fényt az éjszakai infravörös sugárzással. Éjjel a kép nem sötét, mivel az infravörös sugárzás képes érzékelni a hőmérséklet-különbségeket. Sajnos az alacsony felhőket és a ködöt nehéz megkülönböztetni a talaj hőmérsékletétől, így az éjszaka folyamán szinte láthatatlanok lehetnek. A Meteosat európai műholdképei valós időben frissülnek minden 5 percben. A GOES-16/GOES-17 (Észak- és Dél-Amerika) és Himawari (Ázsia) képei 10 percenként frissülnek.

A csapadékmennyiséget radar és műholdak alapján becsülik. A műholdakról származó csapadékbecslések éjszaka kevésbé pontosak, mint nappal.

© 2024 meteoblue, NOAA Satellites GOES-16 and EUMETSAT. nowcast által biztosított villámlással kapcsolatos adatok.

Vissza a tetejére
×
Szia,
úgy tűnik, hogy reklámblokkolót használsz.

A reklámozás elengedhetetlen ahhoz, hogy ingyenes honlapunkat egyedülálló részletességgel és pontossággal tartsuk fenn.

Kérjük, vegye fel a www.meteoblue.com fehérlistára a reklámblokkolóján, vagy fontolja meg valamelyik termékünk megvásárlását:

Már rendelkezik előfizetéssel?
Akkor kérjük, jelentkezzen be.